sensor_id;sensor_type;location;lat;lon;timestamp;P1;P2;P0
49644;PMS5003;36494;50.730;-1.932;2024-02-04T00:00:58;9;9;
49644;PMS5003;36494;50.730;-1.932;2024-02-04T00:03:24;12;12;
49644;PMS5003;36494;50.730;-1.932;2024-02-04T00:05:50;12;12;
49644;PMS5003;36494;50.730;-1.932;2024-02-04T00:08:15;10;10;
49644;PMS5003;36494;50.730;-1.932;2024-02-04T00:10:41;13;13;
49644;PMS5003;36494;50.730;-1.932;2024-02-04T00:13:07;7;6;
49644;PMS5003;36494;50.730;-1.932;2024-02-04T00:15:32;9;7;
49644;PMS5003;36494;50.730;-1.932;2024-02-04T00:17:58;9;9;
49644;PMS5003;36494;50.730;-1.932;2024-02-04T00:20:24;9;7;
49644;PMS5003;36494;50.730;-1.932;2024-02-04T00:22:49;13;12;
49644;PMS5003;36494;50.730;-1.932;2024-02-04T00:25:14;7;7;
49644;PMS5003;36494;50.730;-1.932;2024-02-04T00:27:40;12;10;
49644;PMS5003;36494;50.730;-1.932;2024-02-04T00:30:06;7;7;
49644;PMS5003;36494;50.730;-1.932;2024-02-04T00:32:31;10;7;
49644;PMS5003;36494;50.730;-1.932;2024-02-04T00:34:56;7;6;
49644;PMS5003;36494;50.730;-1.932;2024-02-04T00:37:22;7;7;
49644;PMS5003;36494;50.730;-1.932;2024-02-04T00:39:49;7;7;
49644;PMS5003;36494;50.730;-1.932;2024-02-04T00:42:14;10;10;
49644;PMS5003;36494;50.730;-1.932;2024-02-04T00:44:40;7;7;
49644;PMS5003;36494;50.730;-1.932;2024-02-04T00:47:05;9;6;
49644;PMS5003;36494;50.730;-1.932;2024-02-04T00:49:31;9;9;
49644;PMS5003;36494;50.730;-1.932;2024-02-04T00:51:57;13;12;
49644;PMS5003;36494;50.730;-1.932;2024-02-04T00:54:22;7;7;
49644;PMS5003;36494;50.730;-1.932;2024-02-04T00:56:48;10;10;
49644;PMS5003;36494;50.730;-1.932;2024-02-04T00:59:13;7;7;
49644;PMS5003;36494;50.730;-1.932;2024-02-04T01:01:39;4;4;
49644;PMS5003;36494;50.730;-1.932;2024-02-04T01:04:04;9;6;
49644;PMS5003;36494;50.730;-1.932;2024-02-04T01:06:29;7;7;
49644;PMS5003;36494;50.730;-1.932;2024-02-04T01:08:56;7;6;
49644;PMS5003;36494;50.730;-1.932;2024-02-04T01:11:22;6;6;
49644;PMS5003;36494;50.730;-1.932;2024-02-04T01:13:47;7;6;
49644;PMS5003;36494;50.730;-1.932;2024-02-04T01:16:13;9;9;
49644;PMS5003;36494;50.730;-1.932;2024-02-04T01:18:38;7;6;
49644;PMS5003;36494;50.730;-1.932;2024-02-04T01:21:04;6;4;
49644;PMS5003;36494;50.730;-1.932;2024-02-04T01:23:29;6;4;
49644;PMS5003;36494;50.730;-1.932;2024-02-04T01:25:55;7;7;
49644;PMS5003;36494;50.730;-1.932;2024-02-04T01:28:21;6;6;
49644;PMS5003;36494;50.730;-1.932;2024-02-04T01:30:46;6;6;
49644;PMS5003;36494;50.730;-1.932;2024-02-04T01:33:13;4;4;
49644;PMS5003;36494;50.730;-1.932;2024-02-04T01:35:38;3;3;
49644;PMS5003;36494;50.730;-1.932;2024-02-04T01:38:04;6;4;
49644;PMS5003;36494;50.730;-1.932;2024-02-04T01:40:29;3;3;
49644;PMS5003;36494;50.730;-1.932;2024-02-04T01:42:55;6;6;
49644;PMS5003;36494;50.730;-1.932;2024-02-04T01:45:22;4;4;
49644;PMS5003;36494;50.730;-1.932;2024-02-04T01:47:46;4;4;
49644;PMS5003;36494;50.730;-1.932;2024-02-04T01:50:11;3;3;
49644;PMS5003;36494;50.730;-1.932;2024-02-04T01:52:38;4;3;
49644;PMS5003;36494;50.730;-1.932;2024-02-04T01:55:03;4;4;
49644;PMS5003;36494;50.730;-1.932;2024-02-04T01:57:31;4;3;
49644;PMS5003;36494;50.730;-1.932;2024-02-04T01:59:55;3;3;
49644;PMS5003;36494;50.730;-1.932;2024-02-04T02:02:20;3;1;
49644;PMS5003;36494;50.730;-1.932;2024-02-04T02:04:46;4;4;
49644;PMS5003;36494;50.730;-1.932;2024-02-04T02:07:11;4;4;
49644;PMS5003;36494;50.730;-1.932;2024-02-04T02:09:37;4;4;
49644;PMS5003;36494;50.730;-1.932;2024-02-04T02:12:06;4;4;
49644;PMS5003;36494;50.730;-1.932;2024-02-04T02:14:30;3;3;
49644;PMS5003;36494;50.730;-1.932;2024-02-04T02:16:54;3;3;
49644;PMS5003;36494;50.730;-1.932;2024-02-04T02:19:25;6;6;
49644;PMS5003;36494;50.730;-1.932;2024-02-04T02:21:47;4;4;
49644;PMS5003;36494;50.730;-1.932;2024-02-04T02:24:10;9;9;
49644;PMS5003;36494;50.730;-1.932;2024-02-04T02:26:36;4;4;
49644;PMS5003;36494;50.730;-1.932;2024-02-04T02:29:02;4;4;
49644;PMS5003;36494;50.730;-1.932;2024-02-04T02:31:28;4;4;
49644;PMS5003;36494;50.730;-1.932;2024-02-04T02:33:53;3;3;
49644;PMS5003;36494;50.730;-1.932;2024-02-04T02:36:21;4;4;
49644;PMS5003;36494;50.730;-1.932;2024-02-04T02:38:46;6;4;
49644;PMS5003;36494;50.730;-1.932;2024-02-04T02:41:10;7;6;
49644;PMS5003;36494;50.730;-1.932;2024-02-04T02:43:35;3;3;
49644;PMS5003;36494;50.730;-1.932;2024-02-04T02:46:04;3;3;
49644;PMS5003;36494;50.730;-1.932;2024-02-04T02:48:26;9;7;
49644;PMS5003;36494;50.730;-1.932;2024-02-04T02:50:53;3;3;
49644;PMS5003;36494;50.730;-1.932;2024-02-04T02:53:18;4;4;
49644;PMS5003;36494;50.730;-1.932;2024-02-04T02:55:43;4;4;
49644;PMS5003;36494;50.730;-1.932;2024-02-04T02:58:09;6;4;
49644;PMS5003;36494;50.730;-1.932;2024-02-04T03:00:35;3;3;
49644;PMS5003;36494;50.730;-1.932;2024-02-04T03:03:00;6;6;
49644;PMS5003;36494;50.730;-1.932;2024-02-04T03:05:26;4;4;
49644;PMS5003;36494;50.730;-1.932;2024-02-04T03:07:51;3;3;
49644;PMS5003;36494;50.730;-1.932;2024-02-04T03:10:17;4;3;
49644;PMS5003;36494;50.730;-1.932;2024-02-04T03:12:42;7;7;
49644;PMS5003;36494;50.730;-1.932;2024-02-04T03:15:08;4;4;
49644;PMS5003;36494;50.730;-1.932;2024-02-04T03:17:33;4;4;
49644;PMS5003;36494;50.730;-1.932;2024-02-04T03:19:59;3;3;
49644;PMS5003;36494;50.730;-1.932;2024-02-04T03:22:25;6;4;
49644;PMS5003;36494;50.730;-1.932;2024-02-04T03:24:50;4;4;
49644;PMS5003;36494;50.730;-1.932;2024-02-04T03:27:16;3;3;
49644;PMS5003;36494;50.730;-1.932;2024-02-04T03:29:42;6;6;
49644;PMS5003;36494;50.730;-1.932;2024-02-04T03:32:07;6;6;
49644;PMS5003;36494;50.730;-1.932;2024-02-04T03:34:33;4;4;
49644;PMS5003;36494;50.730;-1.932;2024-02-04T03:36:58;7;4;
49644;PMS5003;36494;50.730;-1.932;2024-02-04T03:39:24;4;4;
49644;PMS5003;36494;50.730;-1.932;2024-02-04T03:41:49;6;4;
49644;PMS5003;36494;50.730;-1.932;2024-02-04T03:44:15;3;3;
49644;PMS5003;36494;50.730;-1.932;2024-02-04T03:46:40;4;3;
49644;PMS5003;36494;50.730;-1.932;2024-02-04T03:49:06;6;6;
49644;PMS5003;36494;50.730;-1.932;2024-02-04T03:51:31;3;3;
49644;PMS5003;36494;50.730;-1.932;2024-02-04T03:53:56;9;9;
49644;PMS5003;36494;50.730;-1.932;2024-02-04T03:56:22;3;3;
49644;PMS5003;36494;50.730;-1.932;2024-02-04T03:58:50;6;6;
49644;PMS5003;36494;50.730;-1.932;2024-02-04T04:01:14;6;6;
49644;PMS5003;36494;50.730;-1.932;2024-02-04T04:03:39;7;6;
49644;PMS5003;36494;50.730;-1.932;2024-02-04T04:06:05;3;3;
49644;PMS5003;36494;50.730;-1.932;2024-02-04T04:08:30;6;6;
49644;PMS5003;36494;50.730;-1.932;2024-02-04T04:10:56;4;4;
49644;PMS5003;36494;50.730;-1.932;2024-02-04T04:13:21;6;4;
49644;PMS5003;36494;50.730;-1.932;2024-02-04T04:15:47;4;4;
49644;PMS5003;36494;50.730;-1.932;2024-02-04T04:18:13;5;5;
49644;PMS5003;36494;50.730;-1.932;2024-02-04T04:20:38;4;4;
49644;PMS5003;36494;50.730;-1.932;2024-02-04T04:23:04;6;6;
49644;PMS5003;36494;50.730;-1.932;2024-02-04T04:25:30;4;4;
49644;PMS5003;36494;50.730;-1.932;2024-02-04T04:27:55;3;3;
49644;PMS5003;36494;50.730;-1.932;2024-02-04T04:30:21;6;6;
49644;PMS5003;36494;50.730;-1.932;2024-02-04T04:32:46;4;4;
49644;PMS5003;36494;50.730;-1.932;2024-02-04T04:35:12;4;3;
49644;PMS5003;36494;50.730;-1.932;2024-02-04T04:37:38;6;4;
49644;PMS5003;36494;50.730;-1.932;2024-02-04T04:40:04;3;3;
49644;PMS5003;36494;50.730;-1.932;2024-02-04T04:42:29;7;6;
49644;PMS5003;36494;50.730;-1.932;2024-02-04T04:44:55;4;4;
49644;PMS5003;36494;50.730;-1.932;2024-02-04T04:47:21;4;3;
49644;PMS5003;36494;50.730;-1.932;2024-02-04T04:49:46;3;3;
49644;PMS5003;36494;50.730;-1.932;2024-02-04T04:52:11;6;4;
49644;PMS5003;36494;50.730;-1.932;2024-02-04T04:54:37;6;4;
49644;PMS5003;36494;50.730;-1.932;2024-02-04T04:57:02;6;4;
49644;PMS5003;36494;50.730;-1.932;2024-02-04T04:59:28;6;6;
49644;PMS5003;36494;50.730;-1.932;2024-02-04T05:01:53;6;6;
49644;PMS5003;36494;50.730;-1.932;2024-02-04T05:04:19;6;6;
49644;PMS5003;36494;50.730;-1.932;2024-02-04T05:06:44;4;4;
49644;PMS5003;36494;50.730;-1.932;2024-02-04T05:09:10;7;6;
49644;PMS5003;36494;50.730;-1.932;2024-02-04T05:11:36;6;6;
49644;PMS5003;36494;50.730;-1.932;2024-02-04T05:14:02;7;6;
49644;PMS5003;36494;50.730;-1.932;2024-02-04T05:16:27;7;6;
49644;PMS5003;36494;50.730;-1.932;2024-02-04T05:18:53;4;4;
49644;PMS5003;36494;50.730;-1.932;2024-02-04T05:21:18;6;6;
49644;PMS5003;36494;50.730;-1.932;2024-02-04T05:23:47;3;3;
49644;PMS5003;36494;50.730;-1.932;2024-02-04T05:26:09;4;3;
49644;PMS5003;36494;50.730;-1.932;2024-02-04T05:28:35;6;6;
49644;PMS5003;36494;50.730;-1.932;2024-02-04T05:31:01;9;6;
49644;PMS5003;36494;50.730;-1.932;2024-02-04T05:33:26;6;4;
49644;PMS5003;36494;50.730;-1.932;2024-02-04T05:35:51;3;3;
49644;PMS5003;36494;50.730;-1.932;2024-02-04T05:38:17;4;4;
49644;PMS5003;36494;50.730;-1.932;2024-02-04T05:40:43;4;3;
49644;PMS5003;36494;50.730;-1.932;2024-02-04T05:43:09;3;3;
49644;PMS5003;36494;50.730;-1.932;2024-02-04T05:45:35;1;1;
49644;PMS5003;36494;50.730;-1.932;2024-02-04T05:48:00;5;3;
49644;PMS5003;36494;50.730;-1.932;2024-02-04T05:50:26;4;4;
49644;PMS5003;36494;50.730;-1.932;2024-02-04T05:52:52;5;5;
49644;PMS5003;36494;50.730;-1.932;2024-02-04T05:55:18;6;6;
49644;PMS5003;36494;50.730;-1.932;2024-02-04T05:57:44;2;2;
49644;PMS5003;36494;50.730;-1.932;2024-02-04T06:00:10;6;4;
49644;PMS5003;36494;50.730;-1.932;2024-02-04T06:02:35;6;4;
49644;PMS5003;36494;50.730;-1.932;2024-02-04T06:05:00;6;6;
49644;PMS5003;36494;50.730;-1.932;2024-02-04T06:07:27;3;3;
49644;PMS5003;36494;50.730;-1.932;2024-02-04T06:09:53;7;7;
49644;PMS5003;36494;50.730;-1.932;2024-02-04T06:12:20;7;5;
49644;PMS5003;36494;50.730;-1.932;2024-02-04T06:14:44;7;6;
49644;PMS5003;36494;50.730;-1.932;2024-02-04T06:17:09;7;6;
49644;PMS5003;36494;50.730;-1.932;2024-02-04T06:19:35;4;3;
49644;PMS5003;36494;50.730;-1.932;2024-02-04T06:22:00;6;6;
49644;PMS5003;36494;50.730;-1.932;2024-02-04T06:24:27;6;6;
49644;PMS5003;36494;50.730;-1.932;2024-02-04T06:26:52;3;3;
49644;PMS5003;36494;50.730;-1.932;2024-02-04T06:29:17;4;4;
49644;PMS5003;36494;50.730;-1.932;2024-02-04T06:31:44;7;7;
49644;PMS5003;36494;50.730;-1.932;2024-02-04T06:34:08;4;4;
49644;PMS5003;36494;50.730;-1.932;2024-02-04T06:36:34;6;4;
49644;PMS5003;36494;50.730;-1.932;2024-02-04T06:38:59;7;7;
49644;PMS5003;36494;50.730;-1.932;2024-02-04T06:41:25;7;7;
49644;PMS5003;36494;50.730;-1.932;2024-02-04T06:43:50;4;4;
49644;PMS5003;36494;50.730;-1.932;2024-02-04T06:48:41;12;10;
49644;PMS5003;36494;50.730;-1.932;2024-02-04T06:51:06;7;7;
49644;PMS5003;36494;50.730;-1.932;2024-02-04T06:53:32;7;7;
49644;PMS5003;36494;50.730;-1.932;2024-02-04T06:55:57;12;9;
49644;PMS5003;36494;50.730;-1.932;2024-02-04T06:58:23;13;13;
49644;PMS5003;36494;50.730;-1.932;2024-02-04T07:00:50;10;10;
49644;PMS5003;36494;50.730;-1.932;2024-02-04T07:03:13;7;7;
49644;PMS5003;36494;50.730;-1.932;2024-02-04T07:05:40;12;10;
49644;PMS5003;36494;50.730;-1.932;2024-02-04T07:08:06;13;12;
49644;PMS5003;36494;50.730;-1.932;2024-02-04T07:10:31;19;16;
49644;PMS5003;36494;50.730;-1.932;2024-02-04T07:12:58;16;15;
49644;PMS5003;36494;50.730;-1.932;2024-02-04T07:15:22;18;13;
49644;PMS5003;36494;50.730;-1.932;2024-02-04T07:17:47;12;12;
49644;PMS5003;36494;50.730;-1.932;2024-02-04T07:20:13;21;18;
49644;PMS5003;36494;50.730;-1.932;2024-02-04T07:22:38;19;16;
49644;PMS5003;36494;50.730;-1.932;2024-02-04T07:25:04;13;13;
49644;PMS5003;36494;50.730;-1.932;2024-02-04T07:27:29;16;15;
49644;PMS5003;36494;50.730;-1.932;2024-02-04T07:29:55;19;18;
49644;PMS5003;36494;50.730;-1.932;2024-02-04T07:32:21;12;10;
49644;PMS5003;36494;50.730;-1.932;2024-02-04T07:34:47;13;13;
49644;PMS5003;36494;50.730;-1.932;2024-02-04T07:37:13;13;10;
49644;PMS5003;36494;50.730;-1.932;2024-02-04T07:39:38;16;15;
49644;PMS5003;36494;50.730;-1.932;2024-02-04T07:42:04;16;15;
49644;PMS5003;36494;50.730;-1.932;2024-02-04T07:44:30;13;13;
49644;PMS5003;36494;50.730;-1.932;2024-02-04T07:46:55;15;12;
49644;PMS5003;36494;50.730;-1.932;2024-02-04T07:49:24;15;15;
49644;PMS5003;36494;50.730;-1.932;2024-02-04T07:51:47;12;12;
49644;PMS5003;36494;50.730;-1.932;2024-02-04T07:54:13;15;12;
49644;PMS5003;36494;50.730;-1.932;2024-02-04T07:56:38;12;12;
49644;PMS5003;36494;50.730;-1.932;2024-02-04T07:59:04;12;12;
49644;PMS5003;36494;50.730;-1.932;2024-02-04T08:01:32;16;15;
49644;PMS5003;36494;50.730;-1.932;2024-02-04T08:03:54;16;15;
49644;PMS5003;36494;50.730;-1.932;2024-02-04T08:06:19;12;10;
49644;PMS5003;36494;50.730;-1.932;2024-02-04T08:08:45;30;22;
49644;PMS5003;36494;50.730;-1.932;2024-02-04T08:11:10;15;15;
49644;PMS5003;36494;50.730;-1.932;2024-02-04T08:13:37;15;13;
49644;PMS5003;36494;50.730;-1.932;2024-02-04T08:16:02;10;10;
49644;PMS5003;36494;50.730;-1.932;2024-02-04T08:18:27;19;15;
49644;PMS5003;36494;50.730;-1.932;2024-02-04T08:20:52;15;13;
49644;PMS5003;36494;50.730;-1.932;2024-02-04T08:23:18;16;15;
49644;PMS5003;36494;50.730;-1.932;2024-02-04T08:25:46;13;13;
49644;PMS5003;36494;50.730;-1.932;2024-02-04T08:28:09;15;15;
49644;PMS5003;36494;50.730;-1.932;2024-02-04T08:30:35;12;12;
49644;PMS5003;36494;50.730;-1.932;2024-02-04T08:33:04;12;12;
49644;PMS5003;36494;50.730;-1.932;2024-02-04T08:35:26;21;13;
49644;PMS5003;36494;50.730;-1.932;2024-02-04T08:37:52;15;15;
49644;PMS5003;36494;50.730;-1.932;2024-02-04T08:40:17;13;13;
49644;PMS5003;36494;50.730;-1.932;2024-02-04T08:42:42;10;8;
49644;PMS5003;36494;50.730;-1.932;2024-02-04T08:45:07;7;7;
49644;PMS5003;36494;50.730;-1.932;2024-02-04T08:47:32;8;8;
49644;PMS5003;36494;50.730;-1.932;2024-02-04T08:49:58;9;9;
49644;PMS5003;36494;50.730;-1.932;2024-02-04T08:52:23;9;7;
49644;PMS5003;36494;50.730;-1.932;2024-02-04T08:54:48;8;6;
49644;PMS5003;36494;50.730;-1.932;2024-02-04T08:57:13;7;6;
49644;PMS5003;36494;50.730;-1.932;2024-02-04T08:59:39;10;9;
49644;PMS5003;36494;50.730;-1.932;2024-02-04T09:02:04;10;8;
49644;PMS5003;36494;50.730;-1.932;2024-02-04T09:04:29;13;12;
49644;PMS5003;36494;50.730;-1.932;2024-02-04T09:06:54;13;9;
49644;PMS5003;36494;50.730;-1.932;2024-02-04T09:09:19;12;11;
49644;PMS5003;36494;50.730;-1.932;2024-02-04T09:11:45;11;8;
49644;PMS5003;36494;50.730;-1.932;2024-02-04T09:14:11;7;6;
49644;PMS5003;36494;50.730;-1.932;2024-02-04T09:16:37;9;8;
49644;PMS5003;36494;50.730;-1.932;2024-02-04T09:19:01;10;9;
49644;PMS5003;36494;50.730;-1.932;2024-02-04T09:21:27;9;8;
49644;PMS5003;36494;50.730;-1.932;2024-02-04T09:23:52;7;6;
49644;PMS5003;36494;50.730;-1.932;2024-02-04T09:26:18;7;7;
49644;PMS5003;36494;50.730;-1.932;2024-02-04T09:28:43;5;5;
49644;PMS5003;36494;50.730;-1.932;2024-02-04T09:31:08;9;8;
49644;PMS5003;36494;50.730;-1.932;2024-02-04T09:33:34;6;6;
49644;PMS5003;36494;50.730;-1.932;2024-02-04T09:35:59;5;4;
49644;PMS5003;36494;50.730;-1.932;2024-02-04T09:38:25;9;8;
49644;PMS5003;36494;50.730;-1.932;2024-02-04T09:40:50;10;9;
49644;PMS5003;36494;50.730;-1.932;2024-02-04T09:43:15;9;8;
49644;PMS5003;36494;50.730;-1.932;2024-02-04T09:45:41;7;7;
49644;PMS5003;36494;50.730;-1.932;2024-02-04T09:48:06;8;7;
49644;PMS5003;36494;50.730;-1.932;2024-02-04T09:50:31;5;5;
49644;PMS5003;36494;50.730;-1.932;2024-02-04T09:52:58;5;5;
49644;PMS5003;36494;50.730;-1.932;2024-02-04T09:55:22;6;5;
49644;PMS5003;36494;50.730;-1.932;2024-02-04T09:57:47;15;15;
49644;PMS5003;36494;50.730;-1.932;2024-02-04T10:00:13;13;13;
49644;PMS5003;36494;50.730;-1.932;2024-02-04T10:05:03;8;7;
49644;PMS5003;36494;50.730;-1.932;2024-02-04T10:07:29;7;7;
49644;PMS5003;36494;50.730;-1.932;2024-02-04T10:09:55;12;12;
49644;PMS5003;36494;50.730;-1.932;2024-02-04T10:12:20;10;7;
49644;PMS5003;36494;50.730;-1.932;2024-02-04T10:14:45;10;10;
49644;PMS5003;36494;50.730;-1.932;2024-02-04T10:17:11;10;7;
49644;PMS5003;36494;50.730;-1.932;2024-02-04T10:19:35;9;9;
49644;PMS5003;36494;50.730;-1.932;2024-02-04T10:22:01;10;10;
49644;PMS5003;36494;50.730;-1.932;2024-02-04T10:24:27;10;9;
49644;PMS5003;36494;50.730;-1.932;2024-02-04T10:26:55;6;6;
49644;PMS5003;36494;50.730;-1.932;2024-02-04T10:29:18;13;13;
49644;PMS5003;36494;50.730;-1.932;2024-02-04T10:31:43;16;12;
49644;PMS5003;36494;50.730;-1.932;2024-02-04T10:34:09;16;13;
49644;PMS5003;36494;50.730;-1.932;2024-02-04T10:36:35;12;12;
49644;PMS5003;36494;50.730;-1.932;2024-02-04T10:39:04;16;15;
49644;PMS5003;36494;50.730;-1.932;2024-02-04T10:41:27;13;12;
49644;PMS5003;36494;50.730;-1.932;2024-02-04T10:43:52;10;10;
49644;PMS5003;36494;50.730;-1.932;2024-02-04T10:46:18;12;10;
49644;PMS5003;36494;50.730;-1.932;2024-02-04T10:48:43;9;9;
49644;PMS5003;36494;50.730;-1.932;2024-02-04T10:51:10;9;9;
49644;PMS5003;36494;50.730;-1.932;2024-02-04T10:53:34;9;9;
49644;PMS5003;36494;50.730;-1.932;2024-02-04T10:55:59;10;10;
49644;PMS5003;36494;50.730;-1.932;2024-02-04T10:58:25;10;9;
49644;PMS5003;36494;50.730;-1.932;2024-02-04T11:00:50;13;12;
49644;PMS5003;36494;50.730;-1.932;2024-02-04T11:03:19;12;10;
49644;PMS5003;36494;50.730;-1.932;2024-02-04T11:05:41;12;12;
49644;PMS5003;36494;50.730;-1.932;2024-02-04T11:08:07;10;10;
49644;PMS5003;36494;50.730;-1.932;2024-02-04T11:10:33;15;13;
49644;PMS5003;36494;50.730;-1.932;2024-02-04T11:12:59;9;7;
49644;PMS5003;36494;50.730;-1.932;2024-02-04T11:15:25;16;13;
49644;PMS5003;36494;50.730;-1.932;2024-02-04T11:17:57;9;9;
49644;PMS5003;36494;50.730;-1.932;2024-02-04T11:20:19;7;7;
49644;PMS5003;36494;50.730;-1.932;2024-02-04T11:22:46;9;9;
49644;PMS5003;36494;50.730;-1.932;2024-02-04T11:25:13;13;13;
49644;PMS5003;36494;50.730;-1.932;2024-02-04T11:27:34;15;15;
49644;PMS5003;36494;50.730;-1.932;2024-02-04T11:29:58;10;10;
49644;PMS5003;36494;50.730;-1.932;2024-02-04T11:32:24;9;9;
49644;PMS5003;36494;50.730;-1.932;2024-02-04T11:34:49;13;12;
49644;PMS5003;36494;50.730;-1.932;2024-02-04T11:37:15;9;9;
49644;PMS5003;36494;50.730;-1.932;2024-02-04T11:39:48;12;12;
49644;PMS5003;36494;50.730;-1.932;2024-02-04T11:44:31;10;7;
49644;PMS5003;36494;50.730;-1.932;2024-02-04T11:46:56;9;7;
49644;PMS5003;36494;50.730;-1.932;2024-02-04T11:49:24;12;10;
49644;PMS5003;36494;50.730;-1.932;2024-02-04T11:51:47;10;7;
49644;PMS5003;36494;50.730;-1.932;2024-02-04T11:54:13;10;10;
49644;PMS5003;36494;50.730;-1.932;2024-02-04T11:56:38;12;10;
49644;PMS5003;36494;50.730;-1.932;2024-02-04T11:59:04;7;7;
49644;PMS5003;36494;50.730;-1.932;2024-02-04T12:01:30;9;9;
49644;PMS5003;36494;50.730;-1.932;2024-02-04T12:03:54;13;13;
49644;PMS5003;36494;50.730;-1.932;2024-02-04T12:06:20;19;18;
49644;PMS5003;36494;50.730;-1.932;2024-02-04T12:08:45;12;9;
49644;PMS5003;36494;50.730;-1.932;2024-02-04T12:11:11;10;10;
49644;PMS5003;36494;50.730;-1.932;2024-02-04T12:13:37;12;10;
49644;PMS5003;36494;50.730;-1.932;2024-02-04T12:16:03;9;7;
49644;PMS5003;36494;50.730;-1.932;2024-02-04T12:18:28;12;10;
49644;PMS5003;36494;50.730;-1.932;2024-02-04T12:20:54;10;9;
49644;PMS5003;36494;50.730;-1.932;2024-02-04T12:23:19;12;12;
49644;PMS5003;36494;50.730;-1.932;2024-02-04T12:25:45;7;7;
49644;PMS5003;36494;50.730;-1.932;2024-02-04T12:28:13;12;10;
49644;PMS5003;36494;50.730;-1.932;2024-02-04T12:30:35;6;6;
49644;PMS5003;36494;50.730;-1.932;2024-02-04T12:33:02;12;12;
49644;PMS5003;36494;50.730;-1.932;2024-02-04T12:35:26;12;12;
49644;PMS5003;36494;50.730;-1.932;2024-02-04T12:37:51;15;12;
49644;PMS5003;36494;50.730;-1.932;2024-02-04T12:40:20;24;21;
49644;PMS5003;36494;50.730;-1.932;2024-02-04T12:42:42;15;13;
49644;PMS5003;36494;50.730;-1.932;2024-02-04T12:45:08;13;13;
49644;PMS5003;36494;50.730;-1.932;2024-02-04T12:47:33;18;16;
49644;PMS5003;36494;50.730;-1.932;2024-02-04T12:49:58;16;16;
49644;PMS5003;36494;50.730;-1.932;2024-02-04T12:52:29;18;18;
49644;PMS5003;36494;50.730;-1.932;2024-02-04T12:54:49;13;13;
49644;PMS5003;36494;50.730;-1.932;2024-02-04T12:59:40;18;16;
49644;PMS5003;36494;50.730;-1.932;2024-02-04T13:02:06;18;18;
49644;PMS5003;36494;50.730;-1.932;2024-02-04T13:04:34;15;13;
49644;PMS5003;36494;50.730;-1.932;2024-02-04T13:06:56;12;12;
49644;PMS5003;36494;50.730;-1.932;2024-02-04T13:09:22;18;15;
49644;PMS5003;36494;50.730;-1.932;2024-02-04T13:11:48;16;15;
49644;PMS5003;36494;50.730;-1.932;2024-02-04T13:14:13;15;13;
49644;PMS5003;36494;50.730;-1.932;2024-02-04T13:16:38;18;16;
49644;PMS5003;36494;50.730;-1.932;2024-02-04T13:19:03;18;16;
49644;PMS5003;36494;50.730;-1.932;2024-02-04T13:21:29;15;13;
49644;PMS5003;36494;50.730;-1.932;2024-02-04T13:23:54;15;15;
49644;PMS5003;36494;50.730;-1.932;2024-02-04T13:26:20;16;15;
49644;PMS5003;36494;50.730;-1.932;2024-02-04T13:28:46;22;19;
49644;PMS5003;36494;50.730;-1.932;2024-02-04T13:31:11;19;18;
49644;PMS5003;36494;50.730;-1.932;2024-02-04T13:33:37;19;18;
49644;PMS5003;36494;50.730;-1.932;2024-02-04T13:36:02;22;21;
49644;PMS5003;36494;50.730;-1.932;2024-02-04T13:38:27;16;15;
49644;PMS5003;36494;50.730;-1.932;2024-02-04T13:40:52;18;15;
49644;PMS5003;36494;50.730;-1.932;2024-02-04T13:43:18;21;21;
49644;PMS5003;36494;50.730;-1.932;2024-02-04T13:45:43;25;25;
49644;PMS5003;36494;50.730;-1.932;2024-02-04T13:48:09;21;18;
49644;PMS5003;36494;50.730;-1.932;2024-02-04T13:50:34;16;16;
49644;PMS5003;36494;50.730;-1.932;2024-02-04T13:53:03;21;19;
49644;PMS5003;36494;50.730;-1.932;2024-02-04T13:55:25;25;24;
49644;PMS5003;36494;50.730;-1.932;2024-02-04T13:57:51;21;19;
49644;PMS5003;36494;50.730;-1.932;2024-02-04T14:00:16;19;18;
49644;PMS5003;36494;50.730;-1.932;2024-02-04T14:02:42;18;18;
49644;PMS5003;36494;50.730;-1.932;2024-02-04T14:05:08;21;21;
49644;PMS5003;36494;50.730;-1.932;2024-02-04T14:07:33;22;21;
49644;PMS5003;36494;50.730;-1.932;2024-02-04T14:09:59;21;21;
49644;PMS5003;36494;50.730;-1.932;2024-02-04T14:12:24;22;22;
49644;PMS5003;36494;50.730;-1.932;2024-02-04T14:14:49;18;15;
49644;PMS5003;36494;50.730;-1.932;2024-02-04T14:17:15;19;18;
49644;PMS5003;36494;50.730;-1.932;2024-02-04T14:19:40;13;13;
49644;PMS5003;36494;50.730;-1.932;2024-02-04T14:22:06;21;19;
49644;PMS5003;36494;50.730;-1.932;2024-02-04T14:24:31;19;16;
49644;PMS5003;36494;50.730;-1.932;2024-02-04T14:26:57;18;18;
49644;PMS5003;36494;50.730;-1.932;2024-02-04T14:29:22;22;21;
49644;PMS5003;36494;50.730;-1.932;2024-02-04T14:31:48;19;18;
49644;PMS5003;36494;50.730;-1.932;2024-02-04T14:34:14;15;13;
49644;PMS5003;36494;50.730;-1.932;2024-02-04T14:36:39;15;15;
49644;PMS5003;36494;50.730;-1.932;2024-02-04T14:39:05;22;19;
49644;PMS5003;36494;50.730;-1.932;2024-02-04T14:41:34;19;18;
49644;PMS5003;36494;50.730;-1.932;2024-02-04T14:43:56;18;16;
49644;PMS5003;36494;50.730;-1.932;2024-02-04T14:46:22;22;21;
49644;PMS5003;36494;50.730;-1.932;2024-02-04T14:48:48;21;16;
49644;PMS5003;36494;50.730;-1.932;2024-02-04T14:51:14;16;15;
49644;PMS5003;36494;50.730;-1.932;2024-02-04T14:53:38;22;22;
49644;PMS5003;36494;50.730;-1.932;2024-02-04T14:56:04;16;15;
49644;PMS5003;36494;50.730;-1.932;2024-02-04T14:58:30;21;19;
49644;PMS5003;36494;50.730;-1.932;2024-02-04T15:00:55;21;18;
49644;PMS5003;36494;50.730;-1.932;2024-02-04T15:03:20;21;18;
49644;PMS5003;36494;50.730;-1.932;2024-02-04T15:05:45;18;16;
49644;PMS5003;36494;50.730;-1.932;2024-02-04T15:08:11;21;18;
49644;PMS5003;36494;50.730;-1.932;2024-02-04T15:10:36;19;19;
49644;PMS5003;36494;50.730;-1.932;2024-02-04T15:13:02;16;15;
49644;PMS5003;36494;50.730;-1.932;2024-02-04T15:15:28;15;15;
49644;PMS5003;36494;50.730;-1.932;2024-02-04T15:17:56;19;18;
49644;PMS5003;36494;50.730;-1.932;2024-02-04T15:20:18;18;13;
49644;PMS5003;36494;50.730;-1.932;2024-02-04T15:22:44;21;19;
49644;PMS5003;36494;50.730;-1.932;2024-02-04T15:25:10;30;25;
49644;PMS5003;36494;50.730;-1.932;2024-02-04T15:27:34;22;18;
49644;PMS5003;36494;50.730;-1.932;2024-02-04T15:30:04;19;18;
49644;PMS5003;36494;50.730;-1.932;2024-02-04T15:32:26;21;19;
49644;PMS5003;36494;50.730;-1.932;2024-02-04T15:34:52;18;15;
49644;PMS5003;36494;50.730;-1.932;2024-02-04T15:37:17;16;15;
49644;PMS5003;36494;50.730;-1.932;2024-02-04T15:39:42;16;15;
49644;PMS5003;36494;50.730;-1.932;2024-02-04T15:42:10;22;19;
49644;PMS5003;36494;50.730;-1.932;2024-02-04T15:44:33;16;16;
49644;PMS5003;36494;50.730;-1.932;2024-02-04T15:46:59;24;24;
49644;PMS5003;36494;50.730;-1.932;2024-02-04T15:49:24;22;21;
49644;PMS5003;36494;50.730;-1.932;2024-02-04T15:51:50;15;15;
49644;PMS5003;36494;50.730;-1.932;2024-02-04T15:54:16;15;13;
49644;PMS5003;36494;50.730;-1.932;2024-02-04T15:56:41;24;22;
49644;PMS5003;36494;50.730;-1.932;2024-02-04T15:59:06;25;24;
49644;PMS5003;36494;50.730;-1.932;2024-02-04T16:01:32;24;19;
49644;PMS5003;36494;50.730;-1.932;2024-02-04T16:03:57;25;24;
49644;PMS5003;36494;50.730;-1.932;2024-02-04T16:06:22;13;12;
49644;PMS5003;36494;50.730;-1.932;2024-02-04T16:08:48;19;16;
49644;PMS5003;36494;50.730;-1.932;2024-02-04T16:11:14;18;15;
49644;PMS5003;36494;50.730;-1.932;2024-02-04T16:13:38;13;13;
49644;PMS5003;36494;50.730;-1.932;2024-02-04T16:16:04;16;13;